sensor_id;sensor_type;location;lat;lon;timestamp;temperature;humidity
8593;DHT22;4334;49.982;8.398;2024-03-23T00:52:24;8.30;99.90
8593;DHT22;4334;49.982;8.398;2024-03-23T00:54:50;8.40;99.90
8593;DHT22;4334;49.982;8.398;2024-03-23T00:57:16;8.50;99.90
8593;DHT22;4334;49.982;8.398;2024-03-23T00:59:43;8.40;99.90
8593;DHT22;4334;49.982;8.398;2024-03-23T01:02:08;8.50;99.90
8593;DHT22;4334;49.982;8.398;2024-03-23T01:04:35;8.50;99.90
8593;DHT22;4334;49.982;8.398;2024-03-23T01:07:00;8.40;99.90
8593;DHT22;4334;49.982;8.398;2024-03-23T01:09:27;8.50;99.90
8593;DHT22;4334;49.982;8.398;2024-03-23T01:11:53;8.50;99.90
8593;DHT22;4334;49.982;8.398;2024-03-23T01:14:19;8.60;99.90
8593;DHT22;4334;49.982;8.398;2024-03-23T01:16:45;8.60;99.90
8593;DHT22;4334;49.982;8.398;2024-03-23T01:19:11;8.70;99.90
8593;DHT22;4334;49.982;8.398;2024-03-23T01:21:37;8.60;99.90
8593;DHT22;4334;49.982;8.398;2024-03-23T01:24:04;8.50;99.90
8593;DHT22;4334;49.982;8.398;2024-03-23T01:26:29;8.60;99.90
8593;DHT22;4334;49.982;8.398;2024-03-23T01:28:56;8.60;99.90
8593;DHT22;4334;49.982;8.398;2024-03-23T01:31:21;8.60;99.90
8593;DHT22;4334;49.982;8.398;2024-03-23T01:33:48;8.60;99.90
8593;DHT22;4334;49.982;8.398;2024-03-23T01:36:13;8.70;99.90
8593;DHT22;4334;49.982;8.398;2024-03-23T01:38:40;8.70;99.90
8593;DHT22;4334;49.982;8.398;2024-03-23T01:41:06;8.70;99.90
8593;DHT22;4334;49.982;8.398;2024-03-23T01:43:32;8.80;99.90
8593;DHT22;4334;49.982;8.398;2024-03-23T01:45:58;8.70;99.90
8593;DHT22;4334;49.982;8.398;2024-03-23T01:48:24;11.10;99.90
8593;DHT22;4334;49.982;8.398;2024-03-23T01:50:50;8.60;99.90
8593;DHT22;4334;49.982;8.398;2024-03-23T01:53:17;8.60;99.90
8593;DHT22;4334;49.982;8.398;2024-03-23T01:55:43;8.60;99.90
8593;DHT22;4334;49.982;8.398;2024-03-23T01:58:09;10.00;99.90
8593;DHT22;4334;49.982;8.398;2024-03-23T02:00:35;8.60;99.90
8593;DHT22;4334;49.982;8.398;2024-03-23T02:03:02;8.50;99.90
8593;DHT22;4334;49.982;8.398;2024-03-23T02:05:46;8.50;99.90
8593;DHT22;4334;49.982;8.398;2024-03-23T02:08:13;8.50;99.90
8593;DHT22;4334;49.982;8.398;2024-03-23T02:10:39;8.50;99.90
8593;DHT22;4334;49.982;8.398;2024-03-23T02:13:06;8.50;99.90
8593;DHT22;4334;49.982;8.398;2024-03-23T02:15:32;8.40;99.90
8593;DHT22;4334;49.982;8.398;2024-03-23T02:17:59;8.40;99.90
8593;DHT22;4334;49.982;8.398;2024-03-23T02:20:24;8.30;99.90
8593;DHT22;4334;49.982;8.398;2024-03-23T02:22:53;8.30;99.90
8593;DHT22;4334;49.982;8.398;2024-03-23T02:25:18;8.20;99.90
8593;DHT22;4334;49.982;8.398;2024-03-23T02:27:45;8.20;99.90
8593;DHT22;4334;49.982;8.398;2024-03-23T02:30:10;8.30;99.90
8593;DHT22;4334;49.982;8.398;2024-03-23T02:32:37;8.30;99.90
8593;DHT22;4334;49.982;8.398;2024-03-23T02:35:03;8.30;99.90
8593;DHT22;4334;49.982;8.398;2024-03-23T02:37:30;8.20;99.90
8593;DHT22;4334;49.982;8.398;2024-03-23T02:39:55;8.30;99.90
8593;DHT22;4334;49.982;8.398;2024-03-23T02:42:22;8.30;99.90
8593;DHT22;4334;49.982;8.398;2024-03-23T02:44:47;8.30;99.90
8593;DHT22;4334;49.982;8.398;2024-03-23T02:47:14;8.30;99.90
8593;DHT22;4334;49.982;8.398;2024-03-23T02:49:40;8.30;99.90
8593;DHT22;4334;49.982;8.398;2024-03-23T02:52:06;8.30;99.90
8593;DHT22;4334;49.982;8.398;2024-03-23T02:54:32;8.40;99.90
8593;DHT22;4334;49.982;8.398;2024-03-23T02:56:58;8.50;99.90
8593;DHT22;4334;49.982;8.398;2024-03-23T02:59:24;8.50;99.90
8593;DHT22;4334;49.982;8.398;2024-03-23T03:01:50;8.60;99.90
8593;DHT22;4334;49.982;8.398;2024-03-23T03:04:16;8.60;99.90
8593;DHT22;4334;49.982;8.398;2024-03-23T03:06:49;8.60;99.90
8593;DHT22;4334;49.982;8.398;2024-03-23T03:09:14;8.60;99.90
8593;DHT22;4334;49.982;8.398;2024-03-23T03:11:41;8.70;99.90
8593;DHT22;4334;49.982;8.398;2024-03-23T03:14:07;8.70;99.90
8593;DHT22;4334;49.982;8.398;2024-03-23T03:16:33;8.80;99.90
8593;DHT22;4334;49.982;8.398;2024-03-23T03:18:59;8.80;99.90
8593;DHT22;4334;49.982;8.398;2024-03-23T03:21:26;8.80;99.90
8593;DHT22;4334;49.982;8.398;2024-03-23T03:23:52;8.80;99.90
8593;DHT22;4334;49.982;8.398;2024-03-23T03:26:19;8.80;99.90
8593;DHT22;4334;49.982;8.398;2024-03-23T03:28:45;10.00;99.90
8593;DHT22;4334;49.982;8.398;2024-03-23T03:31:14;8.80;99.90
8593;DHT22;4334;49.982;8.398;2024-03-23T03:33:40;8.70;99.90
8593;DHT22;4334;49.982;8.398;2024-03-23T03:36:07;8.70;99.90
8593;DHT22;4334;49.982;8.398;2024-03-23T03:38:33;8.70;99.90
8593;DHT22;4334;49.982;8.398;2024-03-23T03:41:00;8.60;99.90
8593;DHT22;4334;49.982;8.398;2024-03-23T03:43:26;8.70;99.90
8593;DHT22;4334;49.982;8.398;2024-03-23T03:45:53;8.70;99.90
8593;DHT22;4334;49.982;8.398;2024-03-23T03:48:19;8.80;99.90
8593;DHT22;4334;49.982;8.398;2024-03-23T03:50:46;8.80;99.90
8593;DHT22;4334;49.982;8.398;2024-03-23T03:53:11;8.80;99.90
8593;DHT22;4334;49.982;8.398;2024-03-23T03:55:38;12.80;99.90
8593;DHT22;4334;49.982;8.398;2024-03-23T03:58:04;8.90;99.90
8593;DHT22;4334;49.982;8.398;2024-03-23T04:00:31;8.80;99.90
8593;DHT22;4334;49.982;8.398;2024-03-23T04:02:57;8.90;99.90
8593;DHT22;4334;49.982;8.398;2024-03-23T04:05:24;9.10;99.90
8593;DHT22;4334;49.982;8.398;2024-03-23T04:07:49;9.20;99.90
8593;DHT22;4334;49.982;8.398;2024-03-23T04:10:16;9.30;99.90
8593;DHT22;4334;49.982;8.398;2024-03-23T04:12:43;9.40;99.90
8593;DHT22;4334;49.982;8.398;2024-03-23T04:15:10;9.30;99.90
8593;DHT22;4334;49.982;8.398;2024-03-23T04:17:36;9.10;99.90
8593;DHT22;4334;49.982;8.398;2024-03-23T04:20:03;8.90;99.90
8593;DHT22;4334;49.982;8.398;2024-03-23T04:22:31;8.60;99.90
8593;DHT22;4334;49.982;8.398;2024-03-23T04:24:57;8.40;99.90
8593;DHT22;4334;49.982;8.398;2024-03-23T04:27:23;8.20;99.90
8593;DHT22;4334;49.982;8.398;2024-03-23T04:29:51;8.20;99.90
8593;DHT22;4334;49.982;8.398;2024-03-23T04:32:16;8.00;99.90
8593;DHT22;4334;49.982;8.398;2024-03-23T04:34:43;8.00;99.90
8593;DHT22;4334;49.982;8.398;2024-03-23T04:37:10;7.90;99.90
8593;DHT22;4334;49.982;8.398;2024-03-23T04:39:37;7.90;99.90
8593;DHT22;4334;49.982;8.398;2024-03-23T04:42:04;7.80;99.90
8593;DHT22;4334;49.982;8.398;2024-03-23T04:44:31;7.80;99.90
8593;DHT22;4334;49.982;8.398;2024-03-23T04:46:58;7.70;99.90
8593;DHT22;4334;49.982;8.398;2024-03-23T04:49:24;7.70;99.90
8593;DHT22;4334;49.982;8.398;2024-03-23T04:51:50;7.70;99.90
8593;DHT22;4334;49.982;8.398;2024-03-23T04:54:16;7.70;99.90
8593;DHT22;4334;49.982;8.398;2024-03-23T04:56:43;7.70;99.90
8593;DHT22;4334;49.982;8.398;2024-03-23T04:59:10;7.70;99.90
8593;DHT22;4334;49.982;8.398;2024-03-23T05:01:36;7.80;99.90
8593;DHT22;4334;49.982;8.398;2024-03-23T05:04:04;7.80;99.90
8593;DHT22;4334;49.982;8.398;2024-03-23T05:06:30;7.80;99.90
8593;DHT22;4334;49.982;8.398;2024-03-23T05:08:57;7.80;99.90
8593;DHT22;4334;49.982;8.398;2024-03-23T05:11:22;7.80;99.90
8593;DHT22;4334;49.982;8.398;2024-03-23T05:13:49;7.80;99.90
8593;DHT22;4334;49.982;8.398;2024-03-23T05:16:15;7.80;99.90
8593;DHT22;4334;49.982;8.398;2024-03-23T05:18:41;7.90;99.90
8593;DHT22;4334;49.982;8.398;2024-03-23T05:21:07;7.80;99.90
8593;DHT22;4334;49.982;8.398;2024-03-23T05:23:36;7.80;99.90
8593;DHT22;4334;49.982;8.398;2024-03-23T05:26:03;7.90;99.90
8593;DHT22;4334;49.982;8.398;2024-03-23T05:28:30;7.90;99.90
8593;DHT22;4334;49.982;8.398;2024-03-23T05:30:56;7.90;99.90
8593;DHT22;4334;49.982;8.398;2024-03-23T05:33:23;7.90;99.90
8593;DHT22;4334;49.982;8.398;2024-03-23T05:35:59;8.00;99.90
8593;DHT22;4334;49.982;8.398;2024-03-23T05:38:26;7.90;99.90
8593;DHT22;4334;49.982;8.398;2024-03-23T05:40:55;8.00;99.90
8593;DHT22;4334;49.982;8.398;2024-03-23T05:43:22;8.00;99.90
8593;DHT22;4334;49.982;8.398;2024-03-23T05:45:57;7.90;99.90
8593;DHT22;4334;49.982;8.398;2024-03-23T05:48:25;8.00;99.90
8593;DHT22;4334;49.982;8.398;2024-03-23T05:50:51;7.90;99.90
8593;DHT22;4334;49.982;8.398;2024-03-23T05:53:19;7.90;99.90
8593;DHT22;4334;49.982;8.398;2024-03-23T05:55:45;8.00;99.90
8593;DHT22;4334;49.982;8.398;2024-03-23T05:58:14;7.90;99.90
8593;DHT22;4334;49.982;8.398;2024-03-23T06:00:40;7.90;99.90
8593;DHT22;4334;49.982;8.398;2024-03-23T06:03:07;8.00;99.90
8593;DHT22;4334;49.982;8.398;2024-03-23T06:05:39;7.80;99.90
8593;DHT22;4334;49.982;8.398;2024-03-23T06:08:08;7.80;99.90
8593;DHT22;4334;49.982;8.398;2024-03-23T06:10:35;7.80;99.90
8593;DHT22;4334;49.982;8.398;2024-03-23T06:13:01;7.70;99.90
8593;DHT22;4334;49.982;8.398;2024-03-23T06:15:27;7.70;99.90
8593;DHT22;4334;49.982;8.398;2024-03-23T06:17:54;7.70;99.90
8593;DHT22;4334;49.982;8.398;2024-03-23T06:20:19;7.60;99.90
8593;DHT22;4334;49.982;8.398;2024-03-23T06:22:46;7.60;99.90
8593;DHT22;4334;49.982;8.398;2024-03-23T06:25:11;7.60;99.90
8593;DHT22;4334;49.982;8.398;2024-03-23T06:27:38;7.50;99.90
8593;DHT22;4334;49.982;8.398;2024-03-23T06:30:05;7.50;99.90
8593;DHT22;4334;49.982;8.398;2024-03-23T06:32:32;8.30;99.90
8593;DHT22;4334;49.982;8.398;2024-03-23T06:34:58;7.50;99.90
8593;DHT22;4334;49.982;8.398;2024-03-23T06:37:24;7.50;99.90
8593;DHT22;4334;49.982;8.398;2024-03-23T06:39:50;7.60;99.90
8593;DHT22;4334;49.982;8.398;2024-03-23T06:42:16;7.60;99.90
8593;DHT22;4334;49.982;8.398;2024-03-23T06:44:43;9.20;99.90
8593;DHT22;4334;49.982;8.398;2024-03-23T06:47:10;7.60;99.90
8593;DHT22;4334;49.982;8.398;2024-03-23T06:49:35;7.60;99.90
8593;DHT22;4334;49.982;8.398;2024-03-23T06:52:02;7.50;99.90
8593;DHT22;4334;49.982;8.398;2024-03-23T06:54:28;7.50;99.90
8593;DHT22;4334;49.982;8.398;2024-03-23T06:56:54;7.50;99.90
8593;DHT22;4334;49.982;8.398;2024-03-23T06:59:20;7.60;99.90
8593;DHT22;4334;49.982;8.398;2024-03-23T07:01:46;7.70;99.90
8593;DHT22;4334;49.982;8.398;2024-03-23T07:04:12;7.80;99.90
8593;DHT22;4334;49.982;8.398;2024-03-23T07:06:45;7.80;99.90
8593;DHT22;4334;49.982;8.398;2024-03-23T07:09:11;7.70;99.90
8593;DHT22;4334;49.982;8.398;2024-03-23T07:11:38;7.70;99.90
8593;DHT22;4334;49.982;8.398;2024-03-23T07:14:03;7.60;99.90
8593;DHT22;4334;49.982;8.398;2024-03-23T07:16:30;7.60;99.90
8593;DHT22;4334;49.982;8.398;2024-03-23T07:18:56;7.80;99.90
8593;DHT22;4334;49.982;8.398;2024-03-23T07:21:22;8.10;99.90
8593;DHT22;4334;49.982;8.398;2024-03-23T07:23:48;8.80;99.90
8593;DHT22;4334;49.982;8.398;2024-03-23T07:26:14;8.90;99.90
8593;DHT22;4334;49.982;8.398;2024-03-23T07:28:40;8.60;99.90
8593;DHT22;4334;49.982;8.398;2024-03-23T07:31:11;8.30;99.90
8593;DHT22;4334;49.982;8.398;2024-03-23T07:33:41;8.20;99.90
8593;DHT22;4334;49.982;8.398;2024-03-23T07:36:08;8.00;99.90
8593;DHT22;4334;49.982;8.398;2024-03-23T07:38:34;8.20;99.90
8593;DHT22;4334;49.982;8.398;2024-03-23T07:43:30;8.90;99.90
8593;DHT22;4334;49.982;8.398;2024-03-23T07:45:56;8.80;99.90
8593;DHT22;4334;49.982;8.398;2024-03-23T07:48:22;8.70;99.90
8593;DHT22;4334;49.982;8.398;2024-03-23T07:51:07;8.60;99.90
8593;DHT22;4334;49.982;8.398;2024-03-23T07:53:33;8.50;99.90
8593;DHT22;4334;49.982;8.398;2024-03-23T07:56:02;8.50;99.90
8593;DHT22;4334;49.982;8.398;2024-03-23T07:58:29;10.30;99.90
8593;DHT22;4334;49.982;8.398;2024-03-23T08:00:56;8.30;99.90
8593;DHT22;4334;49.982;8.398;2024-03-23T08:03:28;8.30;99.90
8593;DHT22;4334;49.982;8.398;2024-03-23T08:05:55;9.00;99.90
8593;DHT22;4334;49.982;8.398;2024-03-23T08:08:20;9.20;99.90
8593;DHT22;4334;49.982;8.398;2024-03-23T08:10:51;9.80;99.90
8593;DHT22;4334;49.982;8.398;2024-03-23T08:13:17;10.20;99.90
8593;DHT22;4334;49.982;8.398;2024-03-23T08:15:44;10.30;99.90
8593;DHT22;4334;49.982;8.398;2024-03-23T08:18:11;10.50;99.90
8593;DHT22;4334;49.982;8.398;2024-03-23T08:20:38;10.40;99.90
8593;DHT22;4334;49.982;8.398;2024-03-23T08:23:05;10.30;99.90
8593;DHT22;4334;49.982;8.398;2024-03-23T08:25:32;10.50;99.90
8593;DHT22;4334;49.982;8.398;2024-03-23T08:27:58;9.70;99.90
8593;DHT22;4334;49.982;8.398;2024-03-23T08:30:25;9.20;99.90
8593;DHT22;4334;49.982;8.398;2024-03-23T08:32:51;9.90;99.90
8593;DHT22;4334;49.982;8.398;2024-03-23T08:35:18;10.30;99.90
8593;DHT22;4334;49.982;8.398;2024-03-23T08:37:43;10.90;99.90
8593;DHT22;4334;49.982;8.398;2024-03-23T08:40:10;11.20;99.90
8593;DHT22;4334;49.982;8.398;2024-03-23T08:42:36;10.40;99.90
8593;DHT22;4334;49.982;8.398;2024-03-23T08:45:03;10.10;99.90
8593;DHT22;4334;49.982;8.398;2024-03-23T08:47:29;11.80;99.90
8593;DHT22;4334;49.982;8.398;2024-03-23T08:49:55;11.60;99.90
8593;DHT22;4334;49.982;8.398;2024-03-23T08:52:22;12.20;99.90
8593;DHT22;4334;49.982;8.398;2024-03-23T08:54:51;12.70;99.90
8593;DHT22;4334;49.982;8.398;2024-03-23T08:57:16;11.10;99.90
8593;DHT22;4334;49.982;8.398;2024-03-23T08:59:43;10.50;99.90
8593;DHT22;4334;49.982;8.398;2024-03-23T09:02:08;10.10;99.90
8593;DHT22;4334;49.982;8.398;2024-03-23T09:04:35;9.80;99.90
8593;DHT22;4334;49.982;8.398;2024-03-23T09:07:01;10.00;99.90
8593;DHT22;4334;49.982;8.398;2024-03-23T09:09:28;10.30;99.90
8593;DHT22;4334;49.982;8.398;2024-03-23T09:11:53;10.20;99.90
8593;DHT22;4334;49.982;8.398;2024-03-23T09:14:22;10.10;99.90
8593;DHT22;4334;49.982;8.398;2024-03-23T09:16:49;10.10;99.90
8593;DHT22;4334;49.982;8.398;2024-03-23T09:19:17;10.60;99.90
8593;DHT22;4334;49.982;8.398;2024-03-23T09:21:43;10.60;99.90
8593;DHT22;4334;49.982;8.398;2024-03-23T09:24:09;10.40;99.90
8593;DHT22;4334;49.982;8.398;2024-03-23T09:26:35;10.20;99.90
8593;DHT22;4334;49.982;8.398;2024-03-23T09:29:01;10.30;99.90
8593;DHT22;4334;49.982;8.398;2024-03-23T09:31:27;11.30;99.90
8593;DHT22;4334;49.982;8.398;2024-03-23T09:33:54;15.80;99.90
8593;DHT22;4334;49.982;8.398;2024-03-23T09:36:19;12.50;99.90
8593;DHT22;4334;49.982;8.398;2024-03-23T09:38:46;15.20;99.90
8593;DHT22;4334;49.982;8.398;2024-03-23T09:41:11;13.00;99.90
8593;DHT22;4334;49.982;8.398;2024-03-23T09:43:39;13.90;99.90
8593;DHT22;4334;49.982;8.398;2024-03-23T09:46:05;16.40;99.90
8593;DHT22;4334;49.982;8.398;2024-03-23T09:48:32;12.30;99.90
8593;DHT22;4334;49.982;8.398;2024-03-23T09:50:58;12.40;99.90
8593;DHT22;4334;49.982;8.398;2024-03-23T09:53:24;12.10;99.90
8593;DHT22;4334;49.982;8.398;2024-03-23T09:55:50;11.60;99.90
8593;DHT22;4334;49.982;8.398;2024-03-23T09:58:18;11.30;99.90
8593;DHT22;4334;49.982;8.398;2024-03-23T10:00:44;11.20;99.90
8593;DHT22;4334;49.982;8.398;2024-03-23T10:03:11;11.20;99.90
8593;DHT22;4334;49.982;8.398;2024-03-23T10:05:37;11.00;99.90
8593;DHT22;4334;49.982;8.398;2024-03-23T10:08:18;10.80;99.90
8593;DHT22;4334;49.982;8.398;2024-03-23T10:10:45;10.70;99.90
8593;DHT22;4334;49.982;8.398;2024-03-23T10:13:24;10.70;99.90
8593;DHT22;4334;49.982;8.398;2024-03-23T10:15:55;10.80;99.90
8593;DHT22;4334;49.982;8.398;2024-03-23T10:18:23;10.80;99.90
8593;DHT22;4334;49.982;8.398;2024-03-23T10:23:34;13.40;99.90
8593;DHT22;4334;49.982;8.398;2024-03-23T10:26:19;11.30;99.90
8593;DHT22;4334;49.982;8.398;2024-03-23T10:28:54;11.00;99.90
8593;DHT22;4334;49.982;8.398;2024-03-23T10:31:22;10.90;99.90
8593;DHT22;4334;49.982;8.398;2024-03-23T10:33:49;10.70;99.90
8593;DHT22;4334;49.982;8.398;2024-03-23T10:36:15;10.50;99.90
8593;DHT22;4334;49.982;8.398;2024-03-23T10:38:43;9.50;99.90
8593;DHT22;4334;49.982;8.398;2024-03-23T10:41:09;8.30;99.90
8593;DHT22;4334;49.982;8.398;2024-03-23T10:43:37;7.70;99.90
8593;DHT22;4334;49.982;8.398;2024-03-23T10:46:03;7.50;99.90
8593;DHT22;4334;49.982;8.398;2024-03-23T10:48:32;7.30;99.90
8593;DHT22;4334;49.982;8.398;2024-03-23T10:50:58;7.20;99.90
8593;DHT22;4334;49.982;8.398;2024-03-23T10:53:26;7.10;99.90
8593;DHT22;4334;49.982;8.398;2024-03-23T10:55:52;6.80;99.90
8593;DHT22;4334;49.982;8.398;2024-03-23T10:58:28;6.80;99.90
8593;DHT22;4334;49.982;8.398;2024-03-23T11:00:55;6.80;99.90
8593;DHT22;4334;49.982;8.398;2024-03-23T11:03:34;6.90;99.90
8593;DHT22;4334;49.982;8.398;2024-03-23T11:06:01;7.20;99.90
8593;DHT22;4334;49.982;8.398;2024-03-23T11:08:36;6.90;99.90
8593;DHT22;4334;49.982;8.398;2024-03-23T11:11:18;6.90;99.90
8593;DHT22;4334;49.982;8.398;2024-03-23T11:13:49;7.10;99.90
8593;DHT22;4334;49.982;8.398;2024-03-23T11:18:48;7.30;99.90
8593;DHT22;4334;49.982;8.398;2024-03-23T11:21:51;7.40;99.90
8593;DHT22;4334;49.982;8.398;2024-03-23T11:24:18;7.30;99.90
8593;DHT22;4334;49.982;8.398;2024-03-23T11:26:44;7.40;99.90
8593;DHT22;4334;49.982;8.398;2024-03-23T11:29:12;7.20;99.90
8593;DHT22;4334;49.982;8.398;2024-03-23T11:31:38;7.30;99.90
8593;DHT22;4334;49.982;8.398;2024-03-23T11:34:05;7.80;99.90
8593;DHT22;4334;49.982;8.398;2024-03-23T11:36:32;8.40;99.90
8593;DHT22;4334;49.982;8.398;2024-03-23T11:38:58;9.40;99.90
8593;DHT22;4334;49.982;8.398;2024-03-23T11:41:25;11.10;99.90
8593;DHT22;4334;49.982;8.398;2024-03-23T11:43:51;12.50;99.90
8593;DHT22;4334;49.982;8.398;2024-03-23T11:46:23;13.50;99.90
8593;DHT22;4334;49.982;8.398;2024-03-23T11:48:50;14.00;99.90
8593;DHT22;4334;49.982;8.398;2024-03-23T11:51:17;14.30;99.90
8593;DHT22;4334;49.982;8.398;2024-03-23T11:53:43;14.60;99.90
8593;DHT22;4334;49.982;8.398;2024-03-23T11:56:09;14.60;99.90
8593;DHT22;4334;49.982;8.398;2024-03-23T11:58:36;14.50;99.90
8593;DHT22;4334;49.982;8.398;2024-03-23T12:01:02;14.50;99.90
8593;DHT22;4334;49.982;8.398;2024-03-23T12:03:31;14.50;99.90
8593;DHT22;4334;49.982;8.398;2024-03-23T12:05:59;14.70;99.90
8593;DHT22;4334;49.982;8.398;2024-03-23T12:08:32;14.40;99.90
8593;DHT22;4334;49.982;8.398;2024-03-23T12:11:07;14.00;99.50
8593;DHT22;4334;49.982;8.398;2024-03-23T12:13:35;14.40;98.50
8593;DHT22;4334;49.982;8.398;2024-03-23T12:16:16;13.10;99.80
8593;DHT22;4334;49.982;8.398;2024-03-23T12:18:46;13.10;99.90
8593;DHT22;4334;49.982;8.398;2024-03-23T12:21:12;13.40;99.90
8593;DHT22;4334;49.982;8.398;2024-03-23T12:23:39;13.80;99.90
8593;DHT22;4334;49.982;8.398;2024-03-23T12:26:05;14.20;96.70
8593;DHT22;4334;49.982;8.398;2024-03-23T12:28:32;14.00;97.80
8593;DHT22;4334;49.982;8.398;2024-03-23T12:30:58;14.70;96.60
8593;DHT22;4334;49.982;8.398;2024-03-23T12:33:25;14.00;96.00
8593;DHT22;4334;49.982;8.398;2024-03-23T12:35:52;12.70;97.80
8593;DHT22;4334;49.982;8.398;2024-03-23T12:38:19;12.30;98.90
8593;DHT22;4334;49.982;8.398;2024-03-23T12:40:48;12.00;99.00
8593;DHT22;4334;49.982;8.398;2024-03-23T12:43:18;11.80;99.90
8593;DHT22;4334;49.982;8.398;2024-03-23T12:45:50;13.00;99.90
8593;DHT22;4334;49.982;8.398;2024-03-23T12:48:17;12.80;99.90
8593;DHT22;4334;49.982;8.398;2024-03-23T12:50:42;12.60;99.30
8593;DHT22;4334;49.982;8.398;2024-03-23T12:53:09;12.40;98.00
8593;DHT22;4334;49.982;8.398;2024-03-23T12:55:35;11.80;99.20
8593;DHT22;4334;49.982;8.398;2024-03-23T12:58:02;10.60;99.90
8593;DHT22;4334;49.982;8.398;2024-03-23T13:00:28;7.20;99.90
8593;DHT22;4334;49.982;8.398;2024-03-23T13:02:55;7.10;99.90
8593;DHT22;4334;49.982;8.398;2024-03-23T13:05:20;6.50;99.90
8593;DHT22;4334;49.982;8.398;2024-03-23T13:07:47;6.20;99.90
8593;DHT22;4334;49.982;8.398;2024-03-23T13:10:13;5.60;99.90
8593;DHT22;4334;49.982;8.398;2024-03-23T13:12:40;5.70;99.90
8593;DHT22;4334;49.982;8.398;2024-03-23T13:15:05;6.20;99.90
8593;DHT22;4334;49.982;8.398;2024-03-23T13:17:32;6.70;99.90
8593;DHT22;4334;49.982;8.398;2024-03-23T13:19:58;7.20;99.90
8593;DHT22;4334;49.982;8.398;2024-03-23T13:22:24;7.80;99.90
8593;DHT22;4334;49.982;8.398;2024-03-23T13:24:50;8.40;99.90
8593;DHT22;4334;49.982;8.398;2024-03-23T13:27:16;8.90;99.90
8593;DHT22;4334;49.982;8.398;2024-03-23T13:29:42;8.60;99.90
8593;DHT22;4334;49.982;8.398;2024-03-23T13:32:11;8.40;99.90
8593;DHT22;4334;49.982;8.398;2024-03-23T13:34:36;8.50;99.90
8593;DHT22;4334;49.982;8.398;2024-03-23T13:37:03;8.80;99.90
8593;DHT22;4334;49.982;8.398;2024-03-23T13:39:29;9.10;99.90
8593;DHT22;4334;49.982;8.398;2024-03-23T13:41:56;9.20;99.90
8593;DHT22;4334;49.982;8.398;2024-03-23T13:44:22;9.10;99.90
8593;DHT22;4334;49.982;8.398;2024-03-23T13:46:49;9.20;99.90
8593;DHT22;4334;49.982;8.398;2024-03-23T13:49:26;9.50;99.90
8593;DHT22;4334;49.982;8.398;2024-03-23T13:51:54;10.00;99.90
8593;DHT22;4334;49.982;8.398;2024-03-23T13:54:20;10.50;99.90
8593;DHT22;4334;49.982;8.398;2024-03-23T13:56:56;10.50;99.90
8593;DHT22;4334;49.982;8.398;2024-03-23T13:59:22;9.90;99.90
8593;DHT22;4334;49.982;8.398;2024-03-23T14:01:50;9.70;99.90
8593;DHT22;4334;49.982;8.398;2024-03-23T14:04:16;9.60;99.90
8593;DHT22;4334;49.982;8.398;2024-03-23T14:06:44;9.70;99.90
8593;DHT22;4334;49.982;8.398;2024-03-23T14:09:11;9.70;99.90
8593;DHT22;4334;49.982;8.398;2024-03-23T14:11:38;9.60;99.90
8593;DHT22;4334;49.982;8.398;2024-03-23T14:14:04;10.40;99.90
8593;DHT22;4334;49.982;8.398;2024-03-23T14:16:31;11.10;99.90
8593;DHT22;4334;49.982;8.398;2024-03-23T14:18:57;11.00;99.90
8593;DHT22;4334;49.982;8.398;2024-03-23T14:21:23;10.70;99.90
8593;DHT22;4334;49.982;8.398;2024-03-23T14:23:49;10.90;99.90
8593;DHT22;4334;49.982;8.398;2024-03-23T14:26:16;10.70;99.90
8593;DHT22;4334;49.982;8.398;2024-03-23T14:28:42;10.30;99.90
8593;DHT22;4334;49.982;8.398;2024-03-23T14:31:08;10.10;99.90
8593;DHT22;4334;49.982;8.398;2024-03-23T14:33:39;10.30;99.90
8593;DHT22;4334;49.982;8.398;2024-03-23T14:36:14;10.60;99.90
8593;DHT22;4334;49.982;8.398;2024-03-23T14:38:40;8.10;99.90
8593;DHT22;4334;49.982;8.398;2024-03-23T14:41:06;11.00;99.90
8593;DHT22;4334;49.982;8.398;2024-03-23T14:43:32;11.60;99.90
8593;DHT22;4334;49.982;8.398;2024-03-23T14:46:12;12.30;99.90
8593;DHT22;4334;49.982;8.398;2024-03-23T14:48:39;12.10;99.90
8593;DHT22;4334;49.982;8.398;2024-03-23T14:51:05;12.10;99.90
8593;DHT22;4334;49.982;8.398;2024-03-23T14:53:36;12.70;99.90
8593;DHT22;4334;49.982;8.398;2024-03-23T14:56:05;15.30;99.90
8593;DHT22;4334;49.982;8.398;2024-03-23T14:58:31;13.20;99.90
8593;DHT22;4334;49.982;8.398;2024-03-23T15:01:04;13.30;99.90
8593;DHT22;4334;49.982;8.398;2024-03-23T15:03:30;13.40;99.90
8593;DHT22;4334;49.982;8.398;2024-03-23T15:05:58;13.40;99.90
8593;DHT22;4334;49.982;8.398;2024-03-23T15:08:25;13.50;99.90
8593;DHT22;4334;49.982;8.398;2024-03-23T15:10:53;12.80;99.90
8593;DHT22;4334;49.982;8.398;2024-03-23T15:13:18;11.40;99.90
8593;DHT22;4334;49.982;8.398;2024-03-23T15:15:48;10.70;99.90
8593;DHT22;4334;49.982;8.398;2024-03-23T15:18:16;10.30;99.90
8593;DHT22;4334;49.982;8.398;2024-03-23T15:20:57;10.00;99.90
8593;DHT22;4334;49.982;8.398;2024-03-23T15:23:24;9.90;99.90
8593;DHT22;4334;49.982;8.398;2024-03-23T15:26:00;9.80;99.90
8593;DHT22;4334;49.982;8.398;2024-03-23T15:28:26;9.70;99.90
8593;DHT22;4334;49.982;8.398;2024-03-23T15:31:06;9.50;99.90
8593;DHT22;4334;49.982;8.398;2024-03-23T15:33:32;9.40;99.90
8593;DHT22;4334;49.982;8.398;2024-03-23T15:36:02;9.00;99.90
8593;DHT22;4334;49.982;8.398;2024-03-23T15:38:28;8.80;99.90
8593;DHT22;4334;49.982;8.398;2024-03-23T15:40:55;8.60;99.90
8593;DHT22;4334;49.982;8.398;2024-03-23T15:43:21;8.50;99.90
8593;DHT22;4334;49.982;8.398;2024-03-23T15:45:58;8.60;99.90
8593;DHT22;4334;49.982;8.398;2024-03-23T15:48:25;8.80;99.90
8593;DHT22;4334;49.982;8.398;2024-03-23T15:50:53;9.40;99.90
8593;DHT22;4334;49.982;8.398;2024-03-23T15:53:19;9.50;99.90
8593;DHT22;4334;49.982;8.398;2024-03-23T15:56:11;10.50;99.90
8593;DHT22;4334;49.982;8.398;2024-03-23T15:58:38;10.70;99.90
8593;DHT22;4334;49.982;8.398;2024-03-23T16:01:06;10.50;99.90
8593;DHT22;4334;49.982;8.398;2024-03-23T16:03:34;9.60;99.90
8593;DHT22;4334;49.982;8.398;2024-03-23T16:06:02;8.90;99.90
8593;DHT22;4334;49.982;8.398;2024-03-23T16:08:29;8.50;99.90
8593;DHT22;4334;49.982;8.398;2024-03-23T16:10:59;8.30;99.90
8593;DHT22;4334;49.982;8.398;2024-03-23T16:13:25;11.00;99.90
8593;DHT22;4334;49.982;8.398;2024-03-23T16:16:03;8.10;99.90
8593;DHT22;4334;49.982;8.398;2024-03-23T16:18:32;8.10;99.90
8593;DHT22;4334;49.982;8.398;2024-03-23T16:21:00;8.20;99.90
8593;DHT22;4334;49.982;8.398;2024-03-23T16:23:26;8.40;99.90
8593;DHT22;4334;49.982;8.398;2024-03-23T16:25:54;8.50;99.90
8593;DHT22;4334;49.982;8.398;2024-03-23T16:28:28;9.40;99.90
8593;DHT22;4334;49.982;8.398;2024-03-23T16:30:55;8.90;99.90
8593;DHT22;4334;49.982;8.398;2024-03-23T16:33:21;9.40;99.90
8593;DHT22;4334;49.982;8.398;2024-03-23T16:38:23;10.20;99.90
8593;DHT22;4334;49.982;8.398;2024-03-23T16:40:54;10.00;99.90
8593;DHT22;4334;49.982;8.398;2024-03-23T16:43:20;9.60;99.90
8593;DHT22;4334;49.982;8.398;2024-03-23T16:46:03;9.50;99.90
8593;DHT22;4334;49.982;8.398;2024-03-23T16:48:29;9.30;99.90
8593;DHT22;4334;49.982;8.398;2024-03-23T16:51:00;8.90;99.90
8593;DHT22;4334;49.982;8.398;2024-03-23T16:53:26;8.70;99.90
8593;DHT22;4334;49.982;8.398;2024-03-23T16:55:56;8.60;99.90
8593;DHT22;4334;49.982;8.398;2024-03-23T16:58:26;8.40;99.90
8593;DHT22;4334;49.982;8.398;2024-03-23T17:00:53;8.40;99.90
8593;DHT22;4334;49.982;8.398;2024-03-23T17:03:22;8.40;99.90
8593;DHT22;4334;49.982;8.398;2024-03-23T17:05:48;11.80;99.90
8593;DHT22;4334;49.982;8.398;2024-03-23T17:08:15;8.30;99.90
8593;DHT22;4334;49.982;8.398;2024-03-23T17:10:44;8.40;99.90
8593;DHT22;4334;49.982;8.398;2024-03-23T17:13:42;8.40;99.90
8593;DHT22;4334;49.982;8.398;2024-03-23T17:20:35;8.20;99.90